sensor_id;sensor_type;location;lat;lon;timestamp;P1;durP1;ratioP1;P2;durP2;ratioP2
13660;SDS011;6903;49.480;11.102;2024-02-14T00:00:16;7.17;;;4.60;;
13660;SDS011;6903;49.480;11.102;2024-02-14T00:02:44;7.53;;;4.30;;
13660;SDS011;6903;49.480;11.102;2024-02-14T00:05:10;9.73;;;4.90;;
13660;SDS011;6903;49.480;11.102;2024-02-14T00:07:38;6.60;;;4.43;;
13660;SDS011;6903;49.480;11.102;2024-02-14T00:10:04;7.10;;;4.50;;
13660;SDS011;6903;49.480;11.102;2024-02-14T00:12:30;7.17;;;4.90;;
13660;SDS011;6903;49.480;11.102;2024-02-14T00:14:56;6.53;;;4.37;;
13660;SDS011;6903;49.480;11.102;2024-02-14T00:17:22;8.47;;;4.33;;
13660;SDS011;6903;49.480;11.102;2024-02-14T00:19:48;7.63;;;4.27;;
13660;SDS011;6903;49.480;11.102;2024-02-14T00:22:13;7.20;;;4.43;;
13660;SDS011;6903;49.480;11.102;2024-02-14T00:24:39;5.97;;;4.33;;
13660;SDS011;6903;49.480;11.102;2024-02-14T00:27:04;6.37;;;4.40;;
13660;SDS011;6903;49.480;11.102;2024-02-14T00:29:29;8.47;;;4.53;;
13660;SDS011;6903;49.480;11.102;2024-02-14T00:31:54;8.07;;;4.43;;
13660;SDS011;6903;49.480;11.102;2024-02-14T00:34:19;8.80;;;4.77;;
13660;SDS011;6903;49.480;11.102;2024-02-14T00:36:46;6.70;;;4.73;;
13660;SDS011;6903;49.480;11.102;2024-02-14T00:39:11;8.87;;;4.53;;
13660;SDS011;6903;49.480;11.102;2024-02-14T00:41:36;7.07;;;4.40;;
13660;SDS011;6903;49.480;11.102;2024-02-14T00:44:02;7.70;;;4.87;;
13660;SDS011;6903;49.480;11.102;2024-02-14T00:46:28;11.00;;;4.67;;
13660;SDS011;6903;49.480;11.102;2024-02-14T00:48:53;8.43;;;4.80;;
13660;SDS011;6903;49.480;11.102;2024-02-14T00:51:19;8.17;;;4.53;;
13660;SDS011;6903;49.480;11.102;2024-02-14T00:53:44;6.20;;;4.33;;
13660;SDS011;6903;49.480;11.102;2024-02-14T00:56:09;8.13;;;4.87;;
13660;SDS011;6903;49.480;11.102;2024-02-14T00:58:35;7.53;;;4.70;;
13660;SDS011;6903;49.480;11.102;2024-02-14T01:01:00;7.80;;;4.60;;
13660;SDS011;6903;49.480;11.102;2024-02-14T01:03:25;6.47;;;4.90;;
13660;SDS011;6903;49.480;11.102;2024-02-14T01:05:51;6.43;;;4.70;;
13660;SDS011;6903;49.480;11.102;2024-02-14T01:08:16;6.80;;;4.30;;
13660;SDS011;6903;49.480;11.102;2024-02-14T01:10:42;9.57;;;4.70;;
13660;SDS011;6903;49.480;11.102;2024-02-14T01:13:07;7.33;;;4.70;;
13660;SDS011;6903;49.480;11.102;2024-02-14T01:15:32;6.70;;;4.53;;
13660;SDS011;6903;49.480;11.102;2024-02-14T01:18:01;6.00;;;4.60;;
13660;SDS011;6903;49.480;11.102;2024-02-14T01:20:26;7.80;;;4.67;;
13660;SDS011;6903;49.480;11.102;2024-02-14T01:22:51;7.97;;;4.63;;
13660;SDS011;6903;49.480;11.102;2024-02-14T01:25:16;6.83;;;4.63;;
13660;SDS011;6903;49.480;11.102;2024-02-14T01:27:41;6.63;;;4.27;;
13660;SDS011;6903;49.480;11.102;2024-02-14T01:30:08;7.50;;;4.50;;
13660;SDS011;6903;49.480;11.102;2024-02-14T01:32:33;8.57;;;5.03;;
13660;SDS011;6903;49.480;11.102;2024-02-14T01:34:58;8.03;;;4.97;;
13660;SDS011;6903;49.480;11.102;2024-02-14T01:37:24;9.90;;;4.57;;
13660;SDS011;6903;49.480;11.102;2024-02-14T01:39:49;7.73;;;5.33;;
13660;SDS011;6903;49.480;11.102;2024-02-14T01:42:15;8.10;;;4.80;;
13660;SDS011;6903;49.480;11.102;2024-02-14T01:44:40;9.57;;;4.47;;
13660;SDS011;6903;49.480;11.102;2024-02-14T01:47:05;7.27;;;4.50;;
13660;SDS011;6903;49.480;11.102;2024-02-14T01:49:31;7.57;;;4.47;;
13660;SDS011;6903;49.480;11.102;2024-02-14T01:51:59;7.83;;;4.20;;
13660;SDS011;6903;49.480;11.102;2024-02-14T01:54:26;7.93;;;4.80;;
13660;SDS011;6903;49.480;11.102;2024-02-14T01:56:52;6.73;;;4.20;;
13660;SDS011;6903;49.480;11.102;2024-02-14T01:59:17;7.70;;;4.53;;
13660;SDS011;6903;49.480;11.102;2024-02-14T02:01:43;5.40;;;4.20;;
13660;SDS011;6903;49.480;11.102;2024-02-14T02:04:08;6.27;;;4.37;;
13660;SDS011;6903;49.480;11.102;2024-02-14T02:06:33;10.57;;;5.40;;
13660;SDS011;6903;49.480;11.102;2024-02-14T02:08:59;6.27;;;3.70;;
13660;SDS011;6903;49.480;11.102;2024-02-14T02:11:24;7.37;;;4.63;;
13660;SDS011;6903;49.480;11.102;2024-02-14T02:13:50;5.30;;;3.80;;
13660;SDS011;6903;49.480;11.102;2024-02-14T02:16:15;5.70;;;4.10;;
13660;SDS011;6903;49.480;11.102;2024-02-14T02:18:40;7.40;;;4.57;;
13660;SDS011;6903;49.480;11.102;2024-02-14T02:21:06;7.77;;;4.53;;
13660;SDS011;6903;49.480;11.102;2024-02-14T02:23:32;6.93;;;4.40;;
13660;SDS011;6903;49.480;11.102;2024-02-14T02:25:57;5.83;;;4.17;;
13660;SDS011;6903;49.480;11.102;2024-02-14T02:28:22;6.83;;;3.87;;
13660;SDS011;6903;49.480;11.102;2024-02-14T02:30:48;7.27;;;4.27;;
13660;SDS011;6903;49.480;11.102;2024-02-14T02:33:13;8.00;;;4.63;;
13660;SDS011;6903;49.480;11.102;2024-02-14T02:35:41;8.23;;;4.03;;
13660;SDS011;6903;49.480;11.102;2024-02-14T02:38:07;7.30;;;4.57;;
13660;SDS011;6903;49.480;11.102;2024-02-14T02:40:32;8.07;;;4.17;;
13660;SDS011;6903;49.480;11.102;2024-02-14T02:42:57;5.50;;;4.40;;
13660;SDS011;6903;49.480;11.102;2024-02-14T02:45:24;8.57;;;4.63;;
13660;SDS011;6903;49.480;11.102;2024-02-14T02:47:49;8.03;;;5.03;;
13660;SDS011;6903;49.480;11.102;2024-02-14T02:50:16;9.10;;;4.63;;
13660;SDS011;6903;49.480;11.102;2024-02-14T02:52:41;6.03;;;4.27;;
13660;SDS011;6903;49.480;11.102;2024-02-14T02:55:06;6.20;;;3.93;;
13660;SDS011;6903;49.480;11.102;2024-02-14T02:57:32;8.47;;;4.67;;
13660;SDS011;6903;49.480;11.102;2024-02-14T02:59:58;6.47;;;4.10;;
13660;SDS011;6903;49.480;11.102;2024-02-14T03:02:24;6.50;;;4.00;;
13660;SDS011;6903;49.480;11.102;2024-02-14T03:04:50;5.80;;;4.30;;
13660;SDS011;6903;49.480;11.102;2024-02-14T03:07:15;9.50;;;3.50;;
13660;SDS011;6903;49.480;11.102;2024-02-14T03:09:41;6.93;;;4.00;;
13660;SDS011;6903;49.480;11.102;2024-02-14T03:12:06;5.93;;;4.03;;
13660;SDS011;6903;49.480;11.102;2024-02-14T03:14:32;7.33;;;3.80;;
13660;SDS011;6903;49.480;11.102;2024-02-14T03:17:01;6.43;;;4.20;;
13660;SDS011;6903;49.480;11.102;2024-02-14T03:19:27;5.80;;;3.97;;
13660;SDS011;6903;49.480;11.102;2024-02-14T03:21:53;7.10;;;4.00;;
13660;SDS011;6903;49.480;11.102;2024-02-14T03:24:18;6.70;;;4.70;;
13660;SDS011;6903;49.480;11.102;2024-02-14T03:26:44;7.27;;;4.43;;
13660;SDS011;6903;49.480;11.102;2024-02-14T03:29:09;6.13;;;3.80;;
13660;SDS011;6903;49.480;11.102;2024-02-14T03:31:35;7.13;;;4.30;;
13660;SDS011;6903;49.480;11.102;2024-02-14T03:34:01;5.07;;;3.63;;
13660;SDS011;6903;49.480;11.102;2024-02-14T03:36:26;7.33;;;3.90;;
13660;SDS011;6903;49.480;11.102;2024-02-14T03:38:55;5.03;;;3.50;;
13660;SDS011;6903;49.480;11.102;2024-02-14T03:41:20;4.77;;;3.60;;
13660;SDS011;6903;49.480;11.102;2024-02-14T03:43:45;6.43;;;4.20;;
13660;SDS011;6903;49.480;11.102;2024-02-14T03:46:10;5.80;;;3.70;;
13660;SDS011;6903;49.480;11.102;2024-02-14T03:48:38;5.33;;;3.60;;
13660;SDS011;6903;49.480;11.102;2024-02-14T03:51:03;7.93;;;4.40;;
13660;SDS011;6903;49.480;11.102;2024-02-14T03:53:28;6.60;;;4.10;;
13660;SDS011;6903;49.480;11.102;2024-02-14T03:55:53;5.50;;;3.63;;
13660;SDS011;6903;49.480;11.102;2024-02-14T03:58:19;7.73;;;3.97;;
13660;SDS011;6903;49.480;11.102;2024-02-14T04:00:48;6.87;;;4.10;;
13660;SDS011;6903;49.480;11.102;2024-02-14T04:03:13;7.07;;;3.80;;
13660;SDS011;6903;49.480;11.102;2024-02-14T04:05:38;5.33;;;3.77;;
13660;SDS011;6903;49.480;11.102;2024-02-14T04:08:04;6.33;;;3.70;;
13660;SDS011;6903;49.480;11.102;2024-02-14T04:10:29;5.57;;;3.33;;
13660;SDS011;6903;49.480;11.102;2024-02-14T04:12:54;5.17;;;3.83;;
13660;SDS011;6903;49.480;11.102;2024-02-14T04:15:20;5.63;;;4.30;;
13660;SDS011;6903;49.480;11.102;2024-02-14T04:17:45;4.67;;;4.13;;
13660;SDS011;6903;49.480;11.102;2024-02-14T04:20:10;7.00;;;3.53;;
13660;SDS011;6903;49.480;11.102;2024-02-14T04:22:35;4.53;;;3.47;;
13660;SDS011;6903;49.480;11.102;2024-02-14T04:25:00;5.17;;;3.37;;
13660;SDS011;6903;49.480;11.102;2024-02-14T04:27:27;6.10;;;4.20;;
13660;SDS011;6903;49.480;11.102;2024-02-14T04:29:52;5.00;;;3.47;;
13660;SDS011;6903;49.480;11.102;2024-02-14T04:32:18;4.67;;;3.67;;
13660;SDS011;6903;49.480;11.102;2024-02-14T04:34:44;4.37;;;3.40;;
13660;SDS011;6903;49.480;11.102;2024-02-14T04:37:09;5.03;;;3.63;;
13660;SDS011;6903;49.480;11.102;2024-02-14T04:39:41;5.27;;;3.87;;
13660;SDS011;6903;49.480;11.102;2024-02-14T04:42:07;5.20;;;3.70;;
13660;SDS011;6903;49.480;11.102;2024-02-14T04:44:33;6.10;;;4.10;;
13660;SDS011;6903;49.480;11.102;2024-02-14T04:46:59;4.93;;;3.63;;
13660;SDS011;6903;49.480;11.102;2024-02-14T04:49:24;6.77;;;4.03;;
13660;SDS011;6903;49.480;11.102;2024-02-14T04:51:50;7.07;;;4.50;;
13660;SDS011;6903;49.480;11.102;2024-02-14T04:54:16;6.47;;;4.17;;
13660;SDS011;6903;49.480;11.102;2024-02-14T04:56:41;6.97;;;4.10;;
13660;SDS011;6903;49.480;11.102;2024-02-14T04:59:07;5.80;;;4.00;;
13660;SDS011;6903;49.480;11.102;2024-02-14T05:01:33;6.87;;;3.90;;
13660;SDS011;6903;49.480;11.102;2024-02-14T05:03:58;6.20;;;3.40;;
13660;SDS011;6903;49.480;11.102;2024-02-14T05:06:24;5.97;;;4.20;;
13660;SDS011;6903;49.480;11.102;2024-02-14T05:08:49;7.67;;;4.13;;
13660;SDS011;6903;49.480;11.102;2024-02-14T05:11:16;5.60;;;4.53;;
13660;SDS011;6903;49.480;11.102;2024-02-14T05:13:41;7.17;;;4.23;;
13660;SDS011;6903;49.480;11.102;2024-02-14T05:16:06;5.67;;;4.37;;
13660;SDS011;6903;49.480;11.102;2024-02-14T05:18:35;6.17;;;4.33;;
13660;SDS011;6903;49.480;11.102;2024-02-14T05:21:00;5.60;;;4.30;;
13660;SDS011;6903;49.480;11.102;2024-02-14T05:23:25;5.00;;;4.00;;
13660;SDS011;6903;49.480;11.102;2024-02-14T05:25:51;5.60;;;4.30;;
13660;SDS011;6903;49.480;11.102;2024-02-14T05:28:16;7.30;;;4.67;;
13660;SDS011;6903;49.480;11.102;2024-02-14T05:30:43;7.33;;;4.03;;
13660;SDS011;6903;49.480;11.102;2024-02-14T05:33:09;4.93;;;3.83;;
13660;SDS011;6903;49.480;11.102;2024-02-14T05:35:35;6.70;;;4.20;;
13660;SDS011;6903;49.480;11.102;2024-02-14T05:38:01;6.50;;;4.17;;
13660;SDS011;6903;49.480;11.102;2024-02-14T05:40:26;8.60;;;4.50;;
13660;SDS011;6903;49.480;11.102;2024-02-14T05:42:51;9.03;;;4.70;;
13660;SDS011;6903;49.480;11.102;2024-02-14T05:45:16;6.33;;;4.10;;
13660;SDS011;6903;49.480;11.102;2024-02-14T05:47:42;5.07;;;3.57;;
13660;SDS011;6903;49.480;11.102;2024-02-14T05:50:08;5.50;;;4.17;;
13660;SDS011;6903;49.480;11.102;2024-02-14T05:52:37;5.90;;;4.27;;
13660;SDS011;6903;49.480;11.102;2024-02-14T05:55:02;6.37;;;4.37;;
13660;SDS011;6903;49.480;11.102;2024-02-14T05:57:28;6.67;;;3.83;;
13660;SDS011;6903;49.480;11.102;2024-02-14T05:59:53;7.53;;;3.90;;
13660;SDS011;6903;49.480;11.102;2024-02-14T06:02:18;6.10;;;4.03;;
13660;SDS011;6903;49.480;11.102;2024-02-14T06:04:44;7.70;;;4.37;;
13660;SDS011;6903;49.480;11.102;2024-02-14T06:07:09;7.80;;;4.60;;
13660;SDS011;6903;49.480;11.102;2024-02-14T06:09:36;5.00;;;4.13;;
13660;SDS011;6903;49.480;11.102;2024-02-14T06:12:01;7.43;;;3.93;;
13660;SDS011;6903;49.480;11.102;2024-02-14T06:14:26;6.57;;;4.03;;
13660;SDS011;6903;49.480;11.102;2024-02-14T06:16:53;5.43;;;3.80;;
13660;SDS011;6903;49.480;11.102;2024-02-14T06:19:18;4.97;;;4.10;;
13660;SDS011;6903;49.480;11.102;2024-02-14T06:21:44;6.20;;;3.60;;
13660;SDS011;6903;49.480;11.102;2024-02-14T06:24:09;7.77;;;4.23;;
13660;SDS011;6903;49.480;11.102;2024-02-14T06:26:38;4.07;;;3.30;;
13660;SDS011;6903;49.480;11.102;2024-02-14T06:29:03;5.47;;;3.70;;
13660;SDS011;6903;49.480;11.102;2024-02-14T06:31:28;4.97;;;3.90;;
13660;SDS011;6903;49.480;11.102;2024-02-14T06:33:53;8.07;;;3.70;;
13660;SDS011;6903;49.480;11.102;2024-02-14T06:36:19;4.43;;;3.73;;
13660;SDS011;6903;49.480;11.102;2024-02-14T06:38:44;4.30;;;3.37;;
13660;SDS011;6903;49.480;11.102;2024-02-14T06:41:11;5.90;;;3.77;;
13660;SDS011;6903;49.480;11.102;2024-02-14T06:43:36;4.40;;;3.90;;
13660;SDS011;6903;49.480;11.102;2024-02-14T06:46:03;5.77;;;3.33;;
13660;SDS011;6903;49.480;11.102;2024-02-14T06:48:29;4.57;;;3.50;;
13660;SDS011;6903;49.480;11.102;2024-02-14T06:50:54;5.20;;;3.90;;
13660;SDS011;6903;49.480;11.102;2024-02-14T06:53:19;6.57;;;3.87;;
13660;SDS011;6903;49.480;11.102;2024-02-14T06:55:44;7.43;;;3.57;;
13660;SDS011;6903;49.480;11.102;2024-02-14T06:58:09;4.80;;;3.40;;
13660;SDS011;6903;49.480;11.102;2024-02-14T07:00:35;6.47;;;3.80;;
13660;SDS011;6903;49.480;11.102;2024-02-14T07:03:00;7.07;;;4.43;;
13660;SDS011;6903;49.480;11.102;2024-02-14T07:05:26;4.60;;;3.30;;
13660;SDS011;6903;49.480;11.102;2024-02-14T07:07:52;8.87;;;3.33;;
13660;SDS011;6903;49.480;11.102;2024-02-14T07:10:18;6.90;;;3.70;;
13660;SDS011;6903;49.480;11.102;2024-02-14T07:12:43;8.90;;;4.30;;
13660;SDS011;6903;49.480;11.102;2024-02-14T07:15:08;6.77;;;3.83;;
13660;SDS011;6903;49.480;11.102;2024-02-14T07:17:33;6.40;;;3.93;;
13660;SDS011;6903;49.480;11.102;2024-02-14T07:19:58;5.03;;;3.50;;
13660;SDS011;6903;49.480;11.102;2024-02-14T07:22:24;6.80;;;4.27;;
13660;SDS011;6903;49.480;11.102;2024-02-14T07:24:49;7.37;;;4.20;;
13660;SDS011;6903;49.480;11.102;2024-02-14T07:27:14;6.00;;;4.17;;
13660;SDS011;6903;49.480;11.102;2024-02-14T07:29:40;6.40;;;3.80;;
13660;SDS011;6903;49.480;11.102;2024-02-14T07:32:05;6.13;;;4.17;;
13660;SDS011;6903;49.480;11.102;2024-02-14T07:34:31;5.13;;;3.70;;
13660;SDS011;6903;49.480;11.102;2024-02-14T07:36:56;10.80;;;3.90;;
13660;SDS011;6903;49.480;11.102;2024-02-14T07:39:21;5.40;;;3.80;;
13660;SDS011;6903;49.480;11.102;2024-02-14T07:41:47;7.70;;;4.20;;
13660;SDS011;6903;49.480;11.102;2024-02-14T07:44:12;6.40;;;4.03;;
13660;SDS011;6903;49.480;11.102;2024-02-14T07:46:38;9.93;;;4.13;;
13660;SDS011;6903;49.480;11.102;2024-02-14T07:49:03;6.33;;;4.50;;
13660;SDS011;6903;49.480;11.102;2024-02-14T07:51:29;10.00;;;4.40;;
13660;SDS011;6903;49.480;11.102;2024-02-14T07:53:58;7.20;;;4.40;;
13660;SDS011;6903;49.480;11.102;2024-02-14T07:56:24;5.27;;;4.10;;
13660;SDS011;6903;49.480;11.102;2024-02-14T07:58:49;7.03;;;3.67;;
13660;SDS011;6903;49.480;11.102;2024-02-14T08:01:15;5.37;;;3.80;;
13660;SDS011;6903;49.480;11.102;2024-02-14T08:03:40;5.47;;;4.13;;
13660;SDS011;6903;49.480;11.102;2024-02-14T08:06:05;6.43;;;4.10;;
13660;SDS011;6903;49.480;11.102;2024-02-14T08:08:30;5.23;;;3.83;;
13660;SDS011;6903;49.480;11.102;2024-02-14T08:10:56;7.13;;;4.20;;
13660;SDS011;6903;49.480;11.102;2024-02-14T08:13:21;4.93;;;3.73;;
13660;SDS011;6903;49.480;11.102;2024-02-14T08:15:46;4.50;;;3.47;;
13660;SDS011;6903;49.480;11.102;2024-02-14T08:18:12;6.33;;;3.90;;
13660;SDS011;6903;49.480;11.102;2024-02-14T08:20:37;7.00;;;4.30;;
13660;SDS011;6903;49.480;11.102;2024-02-14T08:23:02;6.07;;;3.77;;
13660;SDS011;6903;49.480;11.102;2024-02-14T08:25:28;5.00;;;3.50;;
13660;SDS011;6903;49.480;11.102;2024-02-14T08:27:53;5.33;;;3.80;;
13660;SDS011;6903;49.480;11.102;2024-02-14T08:30:18;3.70;;;2.97;;
13660;SDS011;6903;49.480;11.102;2024-02-14T08:32:44;3.97;;;3.30;;
13660;SDS011;6903;49.480;11.102;2024-02-14T08:35:09;4.33;;;3.20;;
13660;SDS011;6903;49.480;11.102;2024-02-14T08:37:35;5.30;;;3.60;;
13660;SDS011;6903;49.480;11.102;2024-02-14T08:40:02;4.90;;;3.67;;
13660;SDS011;6903;49.480;11.102;2024-02-14T08:42:30;5.03;;;3.40;;
13660;SDS011;6903;49.480;11.102;2024-02-14T08:44:56;4.83;;;3.50;;
13660;SDS011;6903;49.480;11.102;2024-02-14T08:47:21;4.13;;;3.17;;
13660;SDS011;6903;49.480;11.102;2024-02-14T08:49:46;5.07;;;3.60;;
13660;SDS011;6903;49.480;11.102;2024-02-14T08:52:11;5.20;;;3.23;;
13660;SDS011;6903;49.480;11.102;2024-02-14T08:54:37;6.73;;;3.30;;
13660;SDS011;6903;49.480;11.102;2024-02-14T08:57:02;5.33;;;3.30;;
13660;SDS011;6903;49.480;11.102;2024-02-14T08:59:27;4.70;;;3.40;;
13660;SDS011;6903;49.480;11.102;2024-02-14T09:01:53;4.53;;;3.40;;
13660;SDS011;6903;49.480;11.102;2024-02-14T09:04:18;4.77;;;3.47;;
13660;SDS011;6903;49.480;11.102;2024-02-14T09:06:43;6.23;;;3.33;;
13660;SDS011;6903;49.480;11.102;2024-02-14T09:09:08;5.23;;;3.60;;
13660;SDS011;6903;49.480;11.102;2024-02-14T09:11:35;5.10;;;3.17;;
13660;SDS011;6903;49.480;11.102;2024-02-14T09:14:00;5.13;;;3.57;;
13660;SDS011;6903;49.480;11.102;2024-02-14T09:16:31;6.30;;;3.37;;
13660;SDS011;6903;49.480;11.102;2024-02-14T09:18:56;4.80;;;3.80;;
13660;SDS011;6903;49.480;11.102;2024-02-14T09:21:22;5.33;;;3.33;;
13660;SDS011;6903;49.480;11.102;2024-02-14T09:23:48;3.70;;;3.30;;
13660;SDS011;6903;49.480;11.102;2024-02-14T09:26:13;4.50;;;3.20;;
13660;SDS011;6903;49.480;11.102;2024-02-14T09:28:41;5.27;;;3.50;;
13660;SDS011;6903;49.480;11.102;2024-02-14T09:31:06;5.33;;;3.30;;
13660;SDS011;6903;49.480;11.102;2024-02-14T09:33:34;6.53;;;3.43;;
13660;SDS011;6903;49.480;11.102;2024-02-14T09:35:59;5.13;;;3.37;;
13660;SDS011;6903;49.480;11.102;2024-02-14T09:38:25;4.50;;;3.07;;
13660;SDS011;6903;49.480;11.102;2024-02-14T09:40:50;3.50;;;2.90;;
13660;SDS011;6903;49.480;11.102;2024-02-14T09:43:24;4.33;;;3.10;;
13660;SDS011;6903;49.480;11.102;2024-02-14T09:45:51;4.90;;;3.13;;
13660;SDS011;6903;49.480;11.102;2024-02-14T09:48:19;6.07;;;3.10;;
13660;SDS011;6903;49.480;11.102;2024-02-14T09:50:46;4.23;;;2.90;;
13660;SDS011;6903;49.480;11.102;2024-02-14T09:53:13;4.50;;;3.10;;
13660;SDS011;6903;49.480;11.102;2024-02-14T09:55:39;4.90;;;2.60;;
13660;SDS011;6903;49.480;11.102;2024-02-14T09:58:06;3.37;;;3.07;;
13660;SDS011;6903;49.480;11.102;2024-02-14T10:00:31;3.40;;;3.00;;
13660;SDS011;6903;49.480;11.102;2024-02-14T10:02:57;4.13;;;3.00;;
13660;SDS011;6903;49.480;11.102;2024-02-14T10:05:23;4.27;;;2.67;;
13660;SDS011;6903;49.480;11.102;2024-02-14T10:07:48;4.17;;;2.90;;
13660;SDS011;6903;49.480;11.102;2024-02-14T10:10:13;3.77;;;2.90;;
13660;SDS011;6903;49.480;11.102;2024-02-14T10:12:39;3.37;;;2.60;;
13660;SDS011;6903;49.480;11.102;2024-02-14T10:15:07;6.70;;;3.20;;
13660;SDS011;6903;49.480;11.102;2024-02-14T10:17:32;5.57;;;2.40;;
13660;SDS011;6903;49.480;11.102;2024-02-14T10:19:58;3.37;;;2.40;;
13660;SDS011;6903;49.480;11.102;2024-02-14T10:22:24;3.87;;;2.57;;
13660;SDS011;6903;49.480;11.102;2024-02-14T10:24:50;4.33;;;2.47;;
13660;SDS011;6903;49.480;11.102;2024-02-14T10:27:15;3.90;;;2.33;;
13660;SDS011;6903;49.480;11.102;2024-02-14T10:29:40;3.70;;;2.60;;
13660;SDS011;6903;49.480;11.102;2024-02-14T10:32:07;4.47;;;2.57;;
13660;SDS011;6903;49.480;11.102;2024-02-14T10:34:32;3.33;;;2.53;;
13660;SDS011;6903;49.480;11.102;2024-02-14T10:36:58;4.97;;;2.70;;
13660;SDS011;6903;49.480;11.102;2024-02-14T10:39:25;4.33;;;2.63;;
13660;SDS011;6903;49.480;11.102;2024-02-14T10:41:50;3.93;;;2.70;;
13660;SDS011;6903;49.480;11.102;2024-02-14T10:44:16;3.23;;;2.40;;
13660;SDS011;6903;49.480;11.102;2024-02-14T10:46:41;4.73;;;2.63;;
13660;SDS011;6903;49.480;11.102;2024-02-14T10:49:08;4.50;;;2.73;;
13660;SDS011;6903;49.480;11.102;2024-02-14T10:51:36;3.80;;;2.70;;
13660;SDS011;6903;49.480;11.102;2024-02-14T10:54:03;4.37;;;2.70;;
13660;SDS011;6903;49.480;11.102;2024-02-14T10:56:30;6.93;;;2.80;;
13660;SDS011;6903;49.480;11.102;2024-02-14T10:58:57;3.23;;;2.40;;
13660;SDS011;6903;49.480;11.102;2024-02-14T11:01:26;4.97;;;2.43;;
13660;SDS011;6903;49.480;11.102;2024-02-14T11:03:53;3.53;;;2.63;;
13660;SDS011;6903;49.480;11.102;2024-02-14T11:06:18;5.67;;;2.50;;
13660;SDS011;6903;49.480;11.102;2024-02-14T11:08:56;4.40;;;2.23;;
13660;SDS011;6903;49.480;11.102;2024-02-14T11:11:22;3.50;;;2.50;;
13660;SDS011;6903;49.480;11.102;2024-02-14T11:13:51;4.80;;;2.70;;
13660;SDS011;6903;49.480;11.102;2024-02-14T11:16:17;3.50;;;2.33;;
13660;SDS011;6903;49.480;11.102;2024-02-14T11:18:42;4.87;;;2.70;;
13660;SDS011;6903;49.480;11.102;2024-02-14T11:21:15;3.67;;;2.17;;
13660;SDS011;6903;49.480;11.102;2024-02-14T11:23:41;4.57;;;2.33;;
13660;SDS011;6903;49.480;11.102;2024-02-14T11:26:14;7.00;;;3.90;;
13660;SDS011;6903;49.480;11.102;2024-02-14T11:28:40;3.07;;;2.50;;
13660;SDS011;6903;49.480;11.102;2024-02-14T11:31:06;3.63;;;2.50;;
13660;SDS011;6903;49.480;11.102;2024-02-14T11:33:34;3.73;;;2.37;;
13660;SDS011;6903;49.480;11.102;2024-02-14T11:36:00;2.60;;;2.40;;
13660;SDS011;6903;49.480;11.102;2024-02-14T11:38:26;4.53;;;2.10;;
13660;SDS011;6903;49.480;11.102;2024-02-14T11:40:54;4.63;;;2.10;;
13660;SDS011;6903;49.480;11.102;2024-02-14T11:43:21;3.13;;;2.10;;
13660;SDS011;6903;49.480;11.102;2024-02-14T11:45:47;3.07;;;1.90;;
13660;SDS011;6903;49.480;11.102;2024-02-14T11:48:15;1.90;;;1.50;;
13660;SDS011;6903;49.480;11.102;2024-02-14T11:50:41;2.70;;;1.70;;
13660;SDS011;6903;49.480;11.102;2024-02-14T11:53:08;3.47;;;1.90;;
13660;SDS011;6903;49.480;11.102;2024-02-14T11:55:35;2.97;;;1.80;;
13660;SDS011;6903;49.480;11.102;2024-02-14T11:58:02;2.43;;;1.60;;
13660;SDS011;6903;49.480;11.102;2024-02-14T12:00:27;1.85;;;1.10;;
13660;SDS011;6903;49.480;11.102;2024-02-14T12:02:52;2.85;;;1.52;;
13660;SDS011;6903;49.480;11.102;2024-02-14T12:05:18;1.90;;;1.30;;
13660;SDS011;6903;49.480;11.102;2024-02-14T12:07:44;1.92;;;1.60;;
13660;SDS011;6903;49.480;11.102;2024-02-14T12:10:09;1.65;;;1.08;;
13660;SDS011;6903;49.480;11.102;2024-02-14T12:12:34;2.42;;;1.20;;
13660;SDS011;6903;49.480;11.102;2024-02-14T12:15:01;1.92;;;1.27;;
13660;SDS011;6903;49.480;11.102;2024-02-14T12:17:26;1.60;;;1.50;;
13660;SDS011;6903;49.480;11.102;2024-02-14T12:19:51;1.92;;;1.40;;
13660;SDS011;6903;49.480;11.102;2024-02-14T12:22:18;1.73;;;1.20;;
13660;SDS011;6903;49.480;11.102;2024-02-14T12:24:44;1.40;;;1.20;;
13660;SDS011;6903;49.480;11.102;2024-02-14T12:27:09;2.30;;;1.23;;
13660;SDS011;6903;49.480;11.102;2024-02-14T12:29:35;2.08;;;1.15;;
13660;SDS011;6903;49.480;11.102;2024-02-14T12:32:04;1.40;;;1.00;;
13660;SDS011;6903;49.480;11.102;2024-02-14T12:34:30;2.30;;;1.10;;
13660;SDS011;6903;49.480;11.102;2024-02-14T12:36:55;6.05;;;3.05;;
13660;SDS011;6903;49.480;11.102;2024-02-14T12:39:20;2.63;;;1.50;;
13660;SDS011;6903;49.480;11.102;2024-02-14T12:41:46;1.67;;;1.30;;
13660;SDS011;6903;49.480;11.102;2024-02-14T12:44:11;1.20;;;0.93;;
13660;SDS011;6903;49.480;11.102;2024-02-14T12:46:36;1.73;;;0.93;;
13660;SDS011;6903;49.480;11.102;2024-02-14T12:49:03;1.55;;;1.17;;
13660;SDS011;6903;49.480;11.102;2024-02-14T12:51:28;2.65;;;0.90;;
13660;SDS011;6903;49.480;11.102;2024-02-14T12:53:53;1.33;;;1.00;;
13660;SDS011;6903;49.480;11.102;2024-02-14T12:56:18;1.55;;;0.90;;
13660;SDS011;6903;49.480;11.102;2024-02-14T12:58:44;2.40;;;1.20;;
13660;SDS011;6903;49.480;11.102;2024-02-14T13:01:11;1.95;;;1.15;;
13660;SDS011;6903;49.480;11.102;2024-02-14T13:03:37;2.13;;;1.17;;
13660;SDS011;6903;49.480;11.102;2024-02-14T13:06:03;1.77;;;1.00;;
13660;SDS011;6903;49.480;11.102;2024-02-14T13:08:28;2.20;;;1.20;;
13660;SDS011;6903;49.480;11.102;2024-02-14T13:10:53;2.03;;;1.00;;
13660;SDS011;6903;49.480;11.102;2024-02-14T13:13:18;1.73;;;1.07;;
13660;SDS011;6903;49.480;11.102;2024-02-14T13:15:43;2.27;;;0.80;;
13660;SDS011;6903;49.480;11.102;2024-02-14T13:18:09;1.60;;;0.80;;
13660;SDS011;6903;49.480;11.102;2024-02-14T13:20:35;2.40;;;0.80;;
13660;SDS011;6903;49.480;11.102;2024-02-14T13:23:00;1.37;;;0.90;;
13660;SDS011;6903;49.480;11.102;2024-02-14T13:25:27;1.20;;;1.07;;
13660;SDS011;6903;49.480;11.102;2024-02-14T13:27:52;1.47;;;1.13;;
13660;SDS011;6903;49.480;11.102;2024-02-14T13:30:19;1.98;;;1.10;;
13660;SDS011;6903;49.480;11.102;2024-02-14T13:32:44;2.88;;;1.42;;
13660;SDS011;6903;49.480;11.102;2024-02-14T13:35:09;1.10;;;1.00;;
13660;SDS011;6903;49.480;11.102;2024-02-14T13:37:36;1.10;;;1.00;;
13660;SDS011;6903;49.480;11.102;2024-02-14T13:40:01;4.00;;;1.20;;
13660;SDS011;6903;49.480;11.102;2024-02-14T13:42:29;1.10;;;0.85;;
13660;SDS011;6903;49.480;11.102;2024-02-14T13:44:54;1.67;;;0.83;;
13660;SDS011;6903;49.480;11.102;2024-02-14T13:47:19;1.42;;;0.90;;
13660;SDS011;6903;49.480;11.102;2024-02-14T13:49:46;1.80;;;1.00;;
13660;SDS011;6903;49.480;11.102;2024-02-14T13:52:11;1.50;;;1.07;;
13660;SDS011;6903;49.480;11.102;2024-02-14T13:54:36;2.00;;;0.85;;
13660;SDS011;6903;49.480;11.102;2024-02-14T13:57:02;1.47;;;0.93;;
13660;SDS011;6903;49.480;11.102;2024-02-14T13:59:27;0.97;;;0.80;;
13660;SDS011;6903;49.480;11.102;2024-02-14T14:01:53;1.17;;;0.95;;
13660;SDS011;6903;49.480;11.102;2024-02-14T14:04:18;1.27;;;0.93;;
13660;SDS011;6903;49.480;11.102;2024-02-14T14:06:43;0.70;;;0.70;;
13660;SDS011;6903;49.480;11.102;2024-02-14T14:09:08;1.00;;;0.90;;
13660;SDS011;6903;49.480;11.102;2024-02-14T14:11:35;1.87;;;0.90;;
13660;SDS011;6903;49.480;11.102;2024-02-14T14:14:00;2.20;;;1.10;;
13660;SDS011;6903;49.480;11.102;2024-02-14T14:16:26;1.67;;;1.20;;
13660;SDS011;6903;49.480;11.102;2024-02-14T14:18:51;2.53;;;1.30;;
13660;SDS011;6903;49.480;11.102;2024-02-14T14:21:16;1.40;;;1.10;;
13660;SDS011;6903;49.480;11.102;2024-02-14T14:23:42;1.23;;;0.90;;
13660;SDS011;6903;49.480;11.102;2024-02-14T14:26:08;3.67;;;1.47;;
13660;SDS011;6903;49.480;11.102;2024-02-14T14:28:33;2.10;;;1.10;;
13660;SDS011;6903;49.480;11.102;2024-02-14T14:30:58;1.07;;;1.00;;
13660;SDS011;6903;49.480;11.102;2024-02-14T14:33:25;1.20;;;1.10;;
13660;SDS011;6903;49.480;11.102;2024-02-14T14:35:50;2.00;;;1.20;;
13660;SDS011;6903;49.480;11.102;2024-02-14T14:38:17;1.53;;;0.93;;